Time;durP1;ratioP1;P1;durP2;ratioP2;P2;SDS_P1;SDS_P2;PMS_P1;PMS_P2;Temp;Humidity;BMP_temperature;BMP_pressure;BME280_temperature;BME280_humidity;BME280_pressure;Samples;Min_cycle;Max_cycle;Signal;HPM_P1;HPM_P2
2023/10/08 00:00:49;;;;;;;5.20;1.35;;;13.30;99.90;;;;;;5018736;28;20041;-73
2023/10/08 00:03:20;;;;;;;4.30;1.30;;;13.30;99.90;;;;;;5035115;28;20073;-73
2023/10/08 00:05:46;;;;;;;4.50;1.30;;;13.20;99.90;;;;;;5019358;28;20095;-72
2023/10/08 00:08:16;;;;;;;3.55;1.27;;;13.20;99.90;;;;;;5002125;28;20048;-73
2023/10/08 00:10:44;;;;;;;4.25;1.55;;;13.20;99.90;;;;;;5035135;28;20044;-72
2023/10/08 00:13:17;;;;;;;4.55;1.65;;;13.20;99.90;;;;;;5018770;28;20558;-72
2023/10/08 00:15:52;;;;;;;4.85;1.60;;;13.20;99.90;;;;;;5034741;28;20057;-74
2023/10/08 00:18:19;;;;;;;5.55;1.77;;;13.20;99.90;;;;;;5020044;28;20065;-72
2023/10/08 00:20:56;;;;;;;4.43;1.60;;;13.20;99.90;;;;;;5035112;28;20034;-74
2023/10/08 00:23:25;;;;;;;4.47;1.65;;;13.20;99.90;;;;;;5034920;28;20505;-74
2023/10/08 00:25:54;;;;;;;4.38;1.70;;;13.20;99.90;;;;;;5034931;28;20049;-74
2023/10/08 00:28:21;;;;;;;4.30;1.70;;;13.20;99.90;;;;;;5018736;28;20111;-75
2023/10/08 00:30:53;;;;;;;6.55;2.25;;;13.30;99.90;;;;;;5018257;28;20520;-76
2023/10/08 00:33:19;;;;;;;4.50;1.70;;;13.20;99.90;;;;;;5019169;28;20095;-74
2023/10/08 00:35:45;;;;;;;6.30;2.13;;;13.20;99.90;;;;;;5018159;28;20571;-66
2023/10/08 00:38:20;;;;;;;5.47;2.30;;;13.30;99.90;;;;;;5035528;28;20046;-66
2023/10/08 00:40:49;;;;;;;4.78;2.20;;;13.20;99.90;;;;;;5019271;28;20041;-66
2023/10/08 00:43:37;;;;;;;5.68;2.42;;;13.20;99.90;;;;;;5001591;28;20073;-65
2023/10/08 00:46:10;;;;;;;9.05;3.15;;;13.20;99.90;;;;;;5017908;28;20456;-65
2023/10/08 00:48:43;;;;;;;6.28;2.83;;;13.20;99.90;;;;;;5003179;28;20037;-65
2023/10/08 00:51:15;;;;;;;5.68;2.90;;;13.20;99.90;;;;;;5018540;28;20120;-65
2023/10/08 00:53:43;;;;;;;7.15;2.72;;;13.20;99.90;;;;;;5017942;28;20405;-65
2023/10/08 00:56:18;;;;;;;6.28;2.75;;;13.20;99.90;;;;;;5033957;28;20049;-65
2023/10/08 00:58:52;;;;;;;5.57;3.17;;;13.10;99.90;;;;;;5002509;28;20037;-64
2023/10/08 01:01:20;;;;;;;6.20;2.95;;;13.10;99.90;;;;;;5035111;28;20099;-65
2023/10/08 01:03:49;;;;;;;6.65;2.30;;;13.20;99.90;;;;;;5034212;28;20375;-65
2023/10/08 01:06:18;;;;;;;5.63;2.47;;;13.20;99.90;;;;;;5018080;28;20120;-66
2023/10/08 01:08:51;;;;;;;5.75;2.40;;;13.20;99.90;;;;;;5017586;28;20129;-67
2023/10/08 01:11:31;;;;;;;5.65;2.13;;;13.10;99.90;;;;;;5034091;28;20382;-67
2023/10/08 01:13:58;;;;;;;4.80;2.20;;;13.20;99.90;;;;;;5018484;28;20049;-65
2023/10/08 01:16:27;;;;;;;5.20;2.30;;;13.20;99.90;;;;;;5017321;28;20052;-66
2023/10/08 01:18:54;;;;;;;5.00;2.15;;;13.20;99.90;;;;;;5033938;28;20047;-65
2023/10/08 01:21:33;;;;;;;4.55;2.20;;;13.20;99.90;;;;;;5001361;28;20124;-64
2023/10/08 01:24:02;;;;;;;4.75;2.00;;;13.20;99.90;;;;;;5033507;28;20038;-65
2023/10/08 01:26:31;;;;;;;4.75;2.40;;;13.20;99.90;;;;;;5017239;28;20490;-65
2023/10/08 01:28:57;;;;;;;4.80;2.10;;;13.20;99.90;;;;;;5017277;28;20052;-65
2023/10/08 01:31:23;;;;;;;4.75;2.10;;;13.20;99.90;;;;;;5033345;28;20127;-65
2023/10/08 01:33:56;;;;;;;4.28;1.90;;;13.20;99.90;;;;;;5016737;28;20509;-65
2023/10/08 01:36:25;;;;;;;4.82;1.83;;;13.20;99.90;;;;;;5033258;28;20042;-65
2023/10/08 01:38:51;;;;;;;5.07;2.00;;;13.20;99.90;;;;;;5050215;28;20506;-65
2023/10/08 01:41:40;;;;;;;5.10;2.10;;;13.20;99.90;;;;;;5033250;28;20033;-65
2023/10/08 01:44:08;;;;;;;4.72;1.90;;;13.20;99.90;;;;;;5017102;28;20077;-66
2023/10/08 01:46:34;;;;;;;4.82;2.50;;;13.20;99.90;;;;;;5033225;28;20106;-66
2023/10/08 01:49:05;;;;;;;6.20;2.63;;;13.20;99.90;;;;;;5033069;28;20131;-66
2023/10/08 01:51:46;;;;;;;5.45;2.20;;;13.20;99.90;;;;;;5033203;28;20053;-66
2023/10/08 01:54:13;;;;;;;4.85;2.38;;;13.20;99.90;;;;;;5018938;28;20116;-66
2023/10/08 01:56:44;;;;;;;6.15;2.90;;;13.10;99.90;;;;;;5032913;28;20045;-66
2023/10/08 01:59:15;;;;;;;6.13;2.60;;;13.20;99.90;;;;;;5016553;28;20045;-66
2023/10/08 02:01:42;;;;;;;4.93;2.15;;;13.20;99.90;;;;;;5034021;28;20053;-65
2023/10/08 02:04:12;;;;;;;5.45;2.35;;;13.20;99.90;;;;;;5033191;28;20056;-65
2023/10/08 02:06:41;;;;;;;4.97;2.05;;;13.20;99.90;;;;;;5032918;28;20080;-65
2023/10/08 02:09:07;;;;;;;4.45;2.33;;;13.20;99.90;;;;;;5016257;28;20135;-65
2023/10/08 02:11:50;;;;;;;4.70;2.20;;;13.30;99.90;;;;;;5032798;28;20079;-65
2023/10/08 02:14:20;;;;;;;5.50;2.30;;;13.30;99.90;;;;;;5000243;28;20111;-65
2023/10/08 02:16:47;;;;;;;4.80;2.30;;;13.40;99.90;;;;;;5032761;28;20490;-65
2023/10/08 02:19:18;;;;;;;4.72;2.10;;;13.30;99.90;;;;;;5000066;28;20069;-65
2023/10/08 02:21:46;;;;;;;4.83;2.10;;;13.30;99.90;;;;;;5032671;28;20412;-65
2023/10/08 02:24:12;;;;;;;5.90;2.17;;;13.30;99.90;;;;;;5032474;28;20041;-65
2023/10/08 02:26:39;;;;;;;4.85;2.15;;;13.30;99.90;;;;;;5032303;28;20127;-65
2023/10/08 02:29:10;;;;;;;5.07;2.40;;;13.30;99.90;;;;;;5032277;28;20111;-65
2023/10/08 02:31:40;;;;;;;4.65;1.83;;;13.20;99.90;;;;;;5016056;28;20046;-65
2023/10/08 02:34:10;;;;;;;3.92;1.90;;;13.20;99.90;;;;;;5032372;28;20068;-65
2023/10/08 02:36:36;;;;;;;5.03;1.80;;;13.30;99.90;;;;;;5016454;28;20069;-65
2023/10/08 02:39:13;;;;;;;4.53;1.85;;;13.30;99.90;;;;;;5032157;28;20172;-65
2023/10/08 02:41:46;;;;;;;6.00;2.40;;;13.30;99.90;;;;;;5032145;28;20124;-65
2023/10/08 02:44:16;;;;;;;4.78;1.90;;;13.30;99.90;;;;;;5032035;28;20041;-65
2023/10/08 02:46:49;;;;;;;4.43;1.85;;;13.40;99.90;;;;;;5033268;28;20076;-66
2023/10/08 02:49:30;;;;;;;4.93;1.88;;;13.40;99.90;;;;;;5016196;28;20049;-66
2023/10/08 02:51:58;;;;;;;6.47;2.45;;;13.40;99.90;;;;;;5017430;28;20049;-66
2023/10/08 02:54:31;;;;;;;5.10;2.10;;;13.40;99.90;;;;;;5031958;28;20045;-66
2023/10/08 02:56:58;;;;;;;5.45;2.10;;;13.40;99.90;;;;;;5032076;28;20046;-73
2023/10/08 02:59:33;;;;;;;5.13;2.10;;;13.40;99.90;;;;;;5032274;28;20044;-72
2023/10/08 03:01:59;;;;;;;4.30;1.98;;;13.40;99.90;;;;;;5015544;28;20037;-72
2023/10/08 03:04:27;;;;;;;4.32;2.10;;;13.40;99.90;;;;;;5032258;28;20041;-72
2023/10/08 03:06:53;;;;;;;4.85;2.08;;;13.40;99.90;;;;;;5000264;28;20041;-72
2023/10/08 03:09:25;;;;;;;4.00;1.98;;;13.40;99.90;;;;;;4999265;28;20056;-72
2023/10/08 03:11:52;;;;;;;4.85;2.30;;;13.40;99.90;;;;;;5033157;28;20095;-72
2023/10/08 03:14:21;;;;;;;4.45;1.92;;;13.40;99.90;;;;;;5031875;28;20073;-72
2023/10/08 03:16:52;;;;;;;5.22;2.00;;;13.40;99.90;;;;;;5016024;28;20128;-72
2023/10/08 03:19:19;;;;;;;3.95;1.92;;;13.40;99.90;;;;;;5031933;28;20045;-72
2023/10/08 03:21:56;;;;;;;3.40;1.70;;;13.40;99.90;;;;;;4999592;28;20390;-72
2023/10/08 03:27:41;;;;;;;4.45;1.77;;;13.40;99.90;;;;;;5035903;28;20041;-72
2023/10/08 03:29:54;;;;;;;6.63;1.92;;;13.40;99.90;;;;;;5033895;28;20049;-72
2023/10/08 03:32:26;;;;;;;5.57;2.00;;;13.40;99.90;;;;;;5035767;28;20410;-73
2023/10/08 03:34:54;;;;;;;4.60;1.77;;;13.40;99.90;;;;;;5003483;28;20045;-71
2023/10/08 03:37:29;;;;;;;3.42;1.67;;;13.40;99.90;;;;;;5003195;28;20044;-71
2023/10/08 03:40:21;;;;;;;3.92;1.52;;;13.40;99.90;;;;;;5035723;28;20049;-71
2023/10/08 03:42:49;;;;;;;4.30;1.40;;;13.40;99.90;;;;;;5022610;28;20049;-71
2023/10/08 03:45:22;;;;;;;6.05;2.60;;;13.40;99.90;;;;;;5019254;28;20048;-71
2023/10/08 03:48:03;;;;;;;4.47;2.00;;;13.40;99.90;;;;;;5020328;28;20052;-71
2023/10/08 03:50:32;;;;;;;5.68;2.35;;;13.40;99.90;;;;;;5035564;28;20048;-65
2023/10/08 03:52:58;;;;;;;5.40;2.25;;;13.40;99.90;;;;;;5019511;28;20044;-64
2023/10/08 03:55:27;;;;;;;5.60;2.53;;;13.40;99.90;;;;;;5036433;28;20037;-66
2023/10/08 03:58:01;;;;;;;4.38;1.58;;;13.40;99.90;;;;;;4987203;28;20500;-66
2023/10/08 04:00:31;;;;;;;6.13;2.40;;;13.40;99.90;;;;;;5020495;28;20545;-64
2023/10/08 04:03:07;;;;;;;5.13;2.35;;;13.50;99.90;;;;;;5035371;28;20041;-65
2023/10/08 04:06:14;;;;;;;8.32;2.85;;;13.40;99.90;;;;;;5020402;28;20458;-70
2023/10/08 04:08:42;;;;;;;5.63;2.80;;;13.40;99.90;;;;;;5053038;28;20056;-70
2023/10/08 04:11:51;;;;;;;6.60;2.30;;;13.30;99.90;;;;;;5035691;28;20102;-71
2023/10/08 04:14:03;;;;;;;6.40;2.85;;;13.30;99.90;;;;;;5037560;28;20041;-70
2023/10/08 04:16:29;;;;;;;6.80;2.50;;;13.30;99.90;;;;;;5022768;28;20045;-71
2023/10/08 04:18:56;;;;;;;5.97;2.50;;;13.30;99.90;;;;;;5040362;28;20102;-72
2023/10/08 04:21:27;;;;;;;6.20;2.90;;;13.30;99.90;;;;;;5040458;28;20041;-71
2023/10/08 04:23:53;;;;;;;5.75;2.40;;;13.20;99.90;;;;;;5024931;28;20034;-69
2023/10/08 04:26:25;;;;;;;4.85;2.17;;;13.20;99.90;;;;;;5037677;28;20077;-69
2023/10/08 04:28:57;;;;;;;7.03;2.67;;;13.20;99.90;;;;;;5036778;28;20041;-70
2023/10/08 04:31:38;;;;;;;5.90;2.30;;;13.30;99.90;;;;;;5035712;28;20169;-70
2023/10/08 04:34:27;;;;;;;6.20;2.05;;;13.20;99.90;;;;;;5005248;28;20045;-70
2023/10/08 04:37:00;;;;;;;5.72;2.03;;;13.30;99.90;;;;;;5034199;28;20121;-70
2023/10/08 04:39:32;;;;;;;7.88;2.20;;;13.20;99.90;;;;;;5003235;28;20048;-70
2023/10/08 04:42:12;;;;;;;;;;;13.20;99.90;;;;;;5036605;28;20120;-71
2023/10/08 04:44:39;;;;;;;6.35;1.90;;;13.20;99.90;;;;;;5035459;28;20429;-72
2023/10/08 04:47:06;;;;;;;5.97;1.80;;;13.20;99.90;;;;;;5034967;28;20041;-71
2023/10/08 04:53:15;;;;;;;4.95;2.00;;;13.20;99.90;;;;;;5036733;28;20087;-71
2023/10/08 04:55:48;;;;;;;5.53;1.48;;;13.10;99.90;;;;;;5034912;28;20095;-67
2023/10/08 04:58:21;;;;;;;6.38;1.95;;;13.10;99.90;;;;;;5018848;28;20045;-67
2023/10/08 05:00:59;;;;;;;6.72;1.90;;;13.10;99.90;;;;;;5034021;28;20132;-67
2023/10/08 05:03:34;;;;;;;6.47;2.20;;;13.10;99.90;;;;;;5033977;28;20048;-67
2023/10/08 05:06:33;;;;;;;7.95;1.88;;;13.10;99.90;;;;;;5017440;28;20064;-71
2023/10/08 05:08:57;;;;;;;6.05;1.85;;;13.10;99.90;;;;;;5032186;28;20493;-71
2023/10/08 05:11:45;;;;;;;6.15;2.10;;;13.10;99.90;;;;;;5017673;28;20099;-71
2023/10/08 05:14:16;;;;;;;6.07;1.70;;;13.00;99.90;;;;;;5020968;28;20103;-71
2023/10/08 05:17:00;;;;;;;6.90;2.00;;;13.00;99.90;;;;;;5033972;28;20116;-71
2023/10/08 05:22:29;;;;;;;7.55;1.92;;;13.00;99.90;;;;;;5033667;28;20072;-71
2023/10/08 05:30:25;;;;;;;5.75;1.80;;;13.00;99.90;;;;;;5033718;28;20397;-71
2023/10/08 05:33:12;;;;;;;6.53;2.10;;;12.90;99.90;;;;;;5033525;28;20053;-71
2023/10/08 05:41:05;;;;;;;7.45;2.10;;;12.90;99.90;;;;;;5016624;28;20045;-71
2023/10/08 06:13:01;;;;;;;7.32;2.10;;;13.00;99.90;;;;;;5017040;28;20046;-72
2023/10/08 06:15:44;;;;;;;6.45;1.90;;;13.10;99.90;;;;;;5032533;28;20045;-71
2023/10/08 06:18:14;;;;;;;7.53;1.90;;;13.10;99.90;;;;;;5034046;28;20045;-72
2023/10/08 06:20:43;;;;;;;5.40;1.80;;;13.10;99.90;;;;;;5032617;28;20044;-71
2023/10/08 06:23:17;;;;;;;8.50;2.60;;;13.10;99.90;;;;;;5016322;28;20084;-71
2023/10/08 06:25:45;;;;;;;6.43;2.10;;;13.10;99.90;;;;;;5016078;28;20103;-70
2023/10/08 06:28:21;;;;;;;6.75;2.10;;;13.10;99.90;;;;;;5016643;28;20597;-70
2023/10/08 06:30:48;;;;;;;6.75;1.92;;;13.10;99.90;;;;;;5016086;28;20085;-70
2023/10/08 06:33:16;;;;;;;6.47;1.80;;;13.20;99.90;;;;;;5032277;28;20049;-70
2023/10/08 06:35:56;;;;;;;7.07;2.03;;;13.20;99.90;;;;;;5016167;28;20044;-70
2023/10/08 06:38:24;;;;;;;7.43;2.22;;;13.30;99.90;;;;;;5001425;28;20044;-71
2023/10/08 06:40:52;;;;;;;7.93;2.22;;;13.30;99.90;;;;;;5033470;28;20060;-70
2023/10/08 06:43:24;;;;;;;8.27;2.40;;;13.30;99.90;;;;;;5032270;28;20033;-71
2023/10/08 06:45:58;;;;;;;7.82;2.40;;;13.30;99.90;;;;;;5010089;28;20060;-71
2023/10/08 06:48:24;;;;;;;4.88;1.85;;;13.30;99.90;;;;;;5033346;28;20116;-71
2023/10/08 06:50:51;;;;;;;7.05;2.25;;;13.40;99.90;;;;;;5034664;28;20033;-70
2023/10/08 06:53:21;;;;;;;9.30;2.47;;;13.40;99.90;;;;;;5032757;28;20042;-72
2023/10/08 06:56:05;;;;;;;7.28;2.10;;;13.50;99.90;;;;;;5000463;28;20052;-65
2023/10/08 06:58:34;;;;;;;7.13;2.00;;;13.60;99.90;;;;;;5033499;28;20397;-65
2023/10/08 07:01:04;;;;;;;7.82;2.08;;;13.60;99.90;;;;;;5015432;28;20474;-66
2023/10/08 07:03:32;;;;;;;7.15;1.98;;;13.70;99.90;;;;;;5032169;28;20041;-66
2023/10/08 07:06:16;;;;;;;8.40;1.92;;;13.70;99.90;;;;;;5032048;28;20485;-66
2023/10/08 07:08:46;;;;;;;7.97;1.92;;;13.80;99.90;;;;;;5031864;28;20045;-66
2023/10/08 07:11:13;;;;;;;7.15;1.98;;;13.80;99.90;;;;;;5048423;28;20095;-65
2023/10/08 07:13:42;;;;;;;8.18;1.55;;;13.90;99.90;;;;;;5030918;28;20064;-65
2023/10/08 07:16:11;;;;;;;7.60;1.70;;;13.90;99.90;;;;;;5032083;28;20073;-71
2023/10/08 07:18:38;;;;;;;7.47;1.70;;;13.90;99.90;;;;;;5032272;28;20508;-71
2023/10/08 07:21:12;;;;;;;7.97;1.48;;;13.90;99.90;;;;;;5032040;28;20474;-71
2023/10/08 07:23:56;;;;;;;6.38;1.33;;;13.90;99.90;;;;;;5048565;28;20037;-71
2023/10/08 07:26:36;;;;;;;8.15;1.67;;;13.90;99.90;;;;;;5017931;28;20038;-65
2023/10/08 07:29:09;;;;;;;5.95;1.50;;;13.90;99.90;;;;;;5031625;28;20099;-67
2023/10/08 07:31:37;;;;;;;7.03;1.40;;;13.90;99.90;;;;;;5032690;28;20103;-65
2023/10/08 07:34:16;;;;;;;8.93;1.75;;;14.00;99.90;;;;;;5015124;28;20046;-65
2023/10/08 07:36:50;;;;;;;7.20;1.60;;;14.10;99.90;;;;;;5015182;28;20038;-65
2023/10/08 07:39:35;;;;;;;5.80;1.70;;;14.10;99.90;;;;;;5031873;28;20136;-65
2023/10/08 07:42:08;;;;;;;7.00;1.67;;;14.30;99.90;;;;;;5031567;28;20050;-65
2023/10/08 07:44:38;;;;;;;6.75;1.70;;;14.30;99.90;;;;;;5031656;28;20437;-65
2023/10/08 07:47:13;;;;;;;7.35;1.80;;;14.40;99.90;;;;;;5031361;28;20080;-65
2023/10/08 07:49:42;;;;;;;8.15;1.63;;;14.50;99.90;;;;;;5031683;28;20401;-65
2023/10/08 07:52:07;;;;;;;8.45;1.60;;;14.50;99.90;;;;;;5031722;28;20041;-65
2023/10/08 07:54:36;;;;;;;9.68;1.83;;;14.50;99.90;;;;;;5015010;28;20052;-65
2023/10/08 07:57:12;;;;;;;8.85;1.55;;;14.50;99.90;;;;;;4999404;28;20037;-65
2023/10/08 07:59:41;;;;;;;9.00;1.75;;;14.60;99.90;;;;;;5031554;28;20073;-65
2023/10/08 08:02:10;;;;;;;7.97;1.60;;;14.60;99.90;;;;;;5031469;28;20044;-66
2023/10/08 08:04:53;;;;;;;7.38;1.70;;;14.60;99.90;;;;;;5031561;28;20095;-65
2023/10/08 08:07:19;;;;;;;;;;;14.60;99.90;;;;;;5015541;28;20398;-66
2023/10/08 08:09:52;;;;;;;8.80;1.70;;;14.60;99.90;;;;;;5031536;28;19916;-66
2023/10/08 08:12:19;;;;;;;6.57;1.40;;;14.60;99.90;;;;;;5033567;28;20041;-65
2023/10/08 08:14:45;;;;;;;6.25;1.42;;;14.50;99.90;;;;;;5035329;28;20056;-66
2023/10/08 08:17:14;;;;;;;6.93;1.60;;;14.50;99.90;;;;;;5034825;28;20139;-65
2023/10/08 08:19:44;;;;;;;8.75;1.70;;;14.50;99.90;;;;;;5035244;28;20042;-65
2023/10/08 08:22:20;;;;;;;9.63;2.00;;;14.50;99.90;;;;;;5034768;28;20077;-65
2023/10/08 08:24:54;;;;;;;9.98;1.80;;;14.50;99.90;;;;;;5035017;28;20029;-65
2023/10/08 08:27:31;;;;;;;8.23;1.70;;;14.60;99.90;;;;;;5036162;28;20124;-66
2023/10/08 08:30:09;;;;;;;10.13;2.22;;;14.50;99.90;;;;;;5034582;28;20068;-65
2023/10/08 08:32:39;;;;;;;9.00;2.08;;;14.30;99.90;;;;;;5034180;28;20049;-66
2023/10/08 08:35:07;;;;;;;11.43;4.68;;;14.20;99.90;;;;;;5034656;28;20045;-67
2023/10/08 08:37:35;;;;;;;7.38;2.50;;;14.30;99.90;;;;;;5034486;28;20501;-67
2023/10/08 08:40:17;;;;;;;9.98;3.45;;;14.20;99.90;;;;;;5001925;28;20047;-67
2023/10/08 08:42:52;;;;;;;10.23;2.70;;;14.30;99.90;;;;;;5017923;28;20043;-67
2023/10/08 08:45:24;;;;;;;11.32;2.20;;;14.30;99.90;;;;;;5018263;28;20042;-66
2023/10/08 08:47:51;;;;;;;8.80;2.15;;;14.30;99.90;;;;;;5018173;28;20042;-66
2023/10/08 08:50:19;;;;;;;8.98;2.22;;;14.40;99.90;;;;;;5034285;28;20081;-66
2023/10/08 08:52:48;;;;;;;8.68;2.05;;;14.50;99.90;;;;;;5034147;28;20045;-66
2023/10/08 08:55:14;;;;;;;8.68;2.30;;;14.60;99.90;;;;;;5018364;28;20080;-66
2023/10/08 08:57:48;;;;;;;9.50;2.28;;;14.80;99.90;;;;;;5001373;28;20095;-66
2023/10/08 09:00:18;;;;;;;7.57;1.90;;;14.90;99.90;;;;;;5017508;28;20065;-66
2023/10/08 09:02:47;;;;;;;8.35;1.83;;;15.00;99.90;;;;;;5033985;28;20040;-66
2023/10/08 09:05:23;;;;;;;10.52;2.15;;;15.10;99.90;;;;;;5033871;28;20049;-66
2023/10/08 09:08:06;;;;;;;7.68;1.95;;;15.20;99.90;;;;;;5033892;28;20052;-66
2023/10/08 09:10:36;;;;;;;8.90;1.92;;;15.30;99.90;;;;;;5017586;28;20048;-66
2023/10/08 09:13:04;;;;;;;9.73;2.03;;;15.40;99.90;;;;;;5034080;28;20046;-66
2023/10/08 09:15:32;;;;;;;11.05;2.05;;;15.50;99.90;;;;;;5034064;28;20045;-66
2023/10/08 09:18:04;;;;;;;9.45;1.90;;;15.60;99.90;;;;;;5034973;28;20053;-66
2023/10/08 09:20:31;;;;;;;8.25;1.90;;;15.70;99.90;;;;;;5033578;28;20076;-68
2023/10/08 09:23:24;;;;;;;9.20;1.80;;;15.70;99.90;;;;;;5033385;28;20045;-65
2023/10/08 09:25:50;;;;;;;8.10;1.80;;;15.90;99.90;;;;;;5014606;28;20041;-65
2023/10/08 09:28:17;;;;;;;8.77;1.70;;;16.00;99.90;;;;;;4984718;28;20043;-65
2023/10/08 09:30:48;;;;;;;8.98;1.83;;;16.10;99.90;;;;;;5017329;28;20079;-65
2023/10/08 09:33:17;;;;;;;8.80;1.80;;;16.00;99.90;;;;;;5033216;28;20498;-66
2023/10/08 09:35:44;;;;;;;9.25;1.90;;;16.00;99.90;;;;;;5017168;28;20474;-66
2023/10/08 09:38:11;;;;;;;10.43;2.00;;;16.00;99.90;;;;;;5033350;28;20125;-66
2023/10/08 09:40:38;;;;;;;7.97;1.70;;;16.00;99.90;;;;;;5033505;28;20060;-72
2023/10/08 09:43:05;;;;;;;10.27;1.80;;;16.00;99.90;;;;;;5050254;28;20432;-73
2023/10/08 09:45:31;;;;;;;6.40;1.60;;;16.00;99.90;;;;;;5017205;28;20045;-71
2023/10/08 09:47:59;;;;;;;9.55;1.80;;;16.00;99.90;;;;;;5017351;28;20037;-71
2023/10/08 09:50:30;;;;;;;10.98;1.85;;;15.90;99.90;;;;;;5034777;28;20112;-71
2023/10/08 09:53:16;;;;;;;11.38;1.98;;;15.80;99.90;;;;;;5034056;28;20053;-72
2023/10/08 09:55:56;;;;;;;10.48;1.95;;;16.00;99.90;;;;;;5033440;28;20042;-66
2023/10/08 09:58:28;;;;;;;7.47;1.55;;;16.10;99.90;;;;;;5033499;28;20545;-65
2023/10/08 10:00:57;;;;;;;9.68;1.88;;;16.20;99.90;;;;;;5033404;28;20045;-65
2023/10/08 10:03:28;;;;;;;7.63;1.80;;;16.30;99.90;;;;;;5017501;28;20052;-65
2023/10/08 10:05:58;;;;;;;8.47;2.00;;;16.20;99.90;;;;;;5050232;28;20108;-65
2023/10/08 10:08:35;;;;;;;10.20;1.75;;;16.20;99.90;;;;;;5017085;28;20096;-66
2023/10/08 10:11:02;;;;;;;9.65;1.90;;;16.30;99.90;;;;;;5033867;28;20197;-66
2023/10/08 10:13:33;;;;;;;10.20;1.85;;;16.40;99.90;;;;;;5017757;28;20064;-66
2023/10/08 10:15:59;;;;;;;8.98;1.75;;;16.50;99.90;;;;;;5019391;28;20076;-66
2023/10/08 10:18:28;;;;;;;9.40;2.08;;;16.60;99.90;;;;;;5016995;28;20084;-65
2023/10/08 10:21:02;;;;;;;8.90;1.88;;;16.70;99.90;;;;;;5032939;28;20183;-65
2023/10/08 10:23:36;;;;;;;8.63;1.90;;;16.70;99.90;;;;;;5016297;28;20049;-67
2023/10/08 10:26:02;;;;;;;9.57;1.80;;;16.70;99.90;;;;;;5032990;28;20120;-65
2023/10/08 10:28:29;;;;;;;11.18;2.00;;;16.80;99.90;;;;;;5017258;28;20386;-66
2023/10/08 10:30:56;;;;;;;8.77;1.70;;;16.90;99.90;;;;;;5032899;28;20102;-66
2023/10/08 10:33:30;;;;;;;8.93;1.77;;;17.10;99.90;;;;;;5033626;28;20058;-66
2023/10/08 10:35:56;;;;;;;9.60;2.00;;;16.90;99.90;;;;;;5032063;28;20033;-66
2023/10/08 10:38:26;;;;;;;10.98;2.05;;;16.90;99.90;;;;;;5016109;28;20052;-65
2023/10/08 10:40:58;;;;;;;8.25;1.70;;;16.90;99.90;;;;;;5000331;28;20142;-66
2023/10/08 10:43:32;;;;;;;10.18;1.92;;;17.10;99.90;;;;;;5032188;28;20128;-66
2023/10/08 10:49:03;;;;;;;9.32;1.88;;;17.10;99.90;;;;;;5032439;28;20135;-66
2023/10/08 10:51:29;;;;;;;9.27;1.80;;;17.00;99.90;;;;;;5015879;28;20041;-67
2023/10/08 10:54:03;;;;;;;11.20;2.13;;;17.00;99.90;;;;;;5015740;28;20049;-66
2023/10/08 10:56:32;;;;;;;11.25;2.20;;;17.00;99.90;;;;;;5017222;28;20050;-73
2023/10/08 10:59:00;;;;;;;9.32;2.10;;;16.90;99.90;;;;;;5032801;28;20046;-73
2023/10/08 11:01:29;;;;;;;11.18;1.90;;;16.90;99.90;;;;;;5016567;28;20041;-74
2023/10/08 11:03:59;;;;;;;9.82;1.80;;;16.90;99.90;;;;;;5016033;28;20045;-74
2023/10/08 11:06:26;;;;;;;8.60;1.90;;;17.00;99.90;;;;;;5032324;28;20056;-65
2023/10/08 11:08:53;;;;;;;9.70;2.13;;;16.90;99.90;;;;;;5015643;28;20530;-66
2023/10/08 11:11:27;;;;;;;12.18;2.00;;;16.90;99.90;;;;;;5031900;28;20045;-66
2023/10/08 11:14:00;;;;;;;9.73;1.92;;;16.80;99.90;;;;;;5031800;28;20048;-66
2023/10/08 11:16:26;;;;;;;10.02;2.00;;;16.90;99.90;;;;;;5015124;28;20041;-66
2023/10/08 11:18:57;;;;;;;10.65;2.00;;;17.10;99.90;;;;;;5015249;28;20125;-65
2023/10/08 11:21:24;;;;;;;10.25;2.03;;;17.00;99.90;;;;;;5015396;28;20048;-66
2023/10/08 11:23:53;;;;;;;10.75;1.90;;;17.10;99.90;;;;;;5031988;28;20041;-66
2023/10/08 11:26:21;;;;;;;9.07;1.80;;;17.20;99.90;;;;;;5015173;28;20041;-66
2023/10/08 11:28:54;;;;;;;7.95;1.80;;;17.20;99.90;;;;;;5015623;28;20041;-67
2023/10/08 11:31:20;;;;;;;8.77;1.77;;;17.30;99.90;;;;;;5015970;28;20088;-66
2023/10/08 11:33:55;;;;;;;9.10;1.70;;;17.30;99.90;;;;;;5015011;28;20485;-66
2023/10/08 11:36:28;;;;;;;9.05;1.90;;;17.50;99.90;;;;;;5031706;28;20409;-66
2023/10/08 11:39:11;;;;;;;8.85;1.90;;;17.50;99.90;;;;;;5016051;28;20091;-66
2023/10/08 11:41:52;;;;;;;10.57;2.10;;;17.40;99.90;;;;;;5031996;28;20500;-66
2023/10/08 11:44:19;;;;;;;9.27;1.92;;;17.30;99.90;;;;;;5015378;28;20492;-66
2023/10/08 11:46:51;;;;;;;8.15;1.85;;;17.50;99.90;;;;;;5034362;28;20044;-66
2023/10/08 11:49:25;;;;;;;8.75;1.90;;;17.50;99.90;;;;;;5035465;28;20038;-66
2023/10/08 11:51:55;;;;;;;8.68;2.00;;;17.60;99.90;;;;;;5019938;28;20049;-66
2023/10/08 11:54:23;;;;;;;12.57;2.17;;;17.70;99.90;;;;;;5035723;28;20390;-66
2023/10/08 11:56:50;;;;;;;8.85;2.03;;;17.70;99.90;;;;;;5019187;28;20052;-66
2023/10/08 11:59:18;;;;;;;9.60;1.88;;;17.60;99.90;;;;;;5035578;28;20498;-66
2023/10/08 12:01:44;;;;;;;7.80;1.88;;;17.50;99.90;;;;;;5035386;28;20551;-66
2023/10/08 12:04:15;;;;;;;8.38;1.80;;;17.30;99.90;;;;;;5035228;28;20037;-65
2023/10/08 12:06:49;;;;;;;7.72;1.60;;;17.30;99.90;;;;;;5003009;28;20156;-66
2023/10/08 12:09:15;;;;;;;10.27;2.10;;;17.20;99.90;;;;;;5035033;28;20042;-66
2023/10/08 12:11:42;;;;;;;9.10;1.83;;;17.40;99.90;;;;;;5035327;28;20516;-65
2023/10/08 12:14:10;;;;;;;8.70;1.90;;;17.40;99.90;;;;;;5002244;28;20049;-66
2023/10/08 12:16:36;;;;;;;10.50;1.70;;;17.50;99.90;;;;;;5034958;28;20411;-74
2023/10/08 12:19:15;;;;;;;9.82;1.88;;;17.50;99.90;;;;;;5036040;28;20034;-74
2023/10/08 12:21:41;;;;;;;10.18;2.15;;;17.70;99.90;;;;;;5019226;28;20037;-73
2023/10/08 12:24:12;;;;;;;9.98;1.73;;;17.70;99.90;;;;;;5019068;28;20041;-73
2023/10/08 12:26:42;;;;;;;10.38;1.90;;;17.70;99.90;;;;;;5019707;28;20045;-74
2023/10/08 12:29:08;;;;;;;10.38;2.20;;;17.70;99.90;;;;;;5019865;28;20048;-73
2023/10/08 12:31:34;;;;;;;11.20;2.25;;;17.80;99.90;;;;;;5018592;28;20104;-73
2023/10/08 12:34:00;;;;;;;9.70;2.00;;;17.80;99.90;;;;;;5002743;28;20049;-73
2023/10/08 12:36:32;;;;;;;11.13;1.98;;;17.80;99.90;;;;;;5034913;28;20500;-73
2023/10/08 12:38:59;;;;;;;10.82;2.00;;;17.80;99.90;;;;;;5034814;28;20128;-72
2023/10/08 12:41:28;;;;;;;8.93;2.08;;;17.80;99.90;;;;;;5018662;28;20045;-72
2023/10/08 12:43:54;;;;;;;10.15;1.90;;;17.60;99.90;;;;;;5018432;28;20045;-72
2023/10/08 12:46:25;;;;;;;9.25;1.90;;;17.70;99.90;;;;;;5018149;28;20091;-73
2023/10/08 12:48:53;;;;;;;9.38;1.83;;;17.50;99.90;;;;;;5035260;28;20037;-73
2023/10/08 12:51:25;;;;;;;10.02;1.67;;;17.40;99.90;;;;;;5018288;28;20041;-74
2023/10/08 12:54:06;;;;;;;9.50;2.10;;;17.30;99.90;;;;;;5018055;28;20102;-72
2023/10/08 12:56:35;;;;;;;7.38;1.70;;;17.30;99.90;;;;;;5017937;28;20045;-73
2023/10/08 12:59:08;;;;;;;6.55;1.70;;;17.30;99.90;;;;;;5035307;28;20045;-74
2023/10/08 13:01:41;;;;;;;8.55;1.67;;;17.50;99.90;;;;;;5034347;28;20038;-74
2023/10/08 13:04:15;;;;;;;8.85;1.95;;;17.40;99.90;;;;;;5034485;28;20087;-74
2023/10/08 13:06:45;;;;;;;9.82;2.05;;;17.30;99.90;;;;;;5034527;28;20132;-74
2023/10/08 13:09:12;;;;;;;9.73;2.00;;;17.30;99.90;;;;;;5034331;28;20045;-74
2023/10/08 13:11:42;;;;;;;8.93;1.80;;;17.20;99.90;;;;;;5034518;28;20045;-73
2023/10/08 13:14:08;;;;;;;8.10;1.88;;;17.10;99.90;;;;;;5018262;28;20080;-73
2023/10/08 13:16:37;;;;;;;9.18;1.92;;;17.20;99.90;;;;;;5018003;28;20076;-73
2023/10/08 13:19:04;;;;;;;9.30;2.00;;;17.20;99.90;;;;;;5017932;28;20398;-73
2023/10/08 13:21:33;;;;;;;10.48;2.22;;;17.20;99.90;;;;;;5033889;28;20038;-73
2023/10/08 13:24:00;;;;;;;10.43;2.03;;;17.10;99.90;;;;;;5034171;28;20033;-73
2023/10/08 13:26:30;;;;;;;7.93;1.80;;;17.00;99.90;;;;;;5017691;28;20127;-73
2023/10/08 13:28:58;;;;;;;6.95;2.00;;;17.00;99.90;;;;;;5034447;28;20049;-72
2023/10/08 13:31:29;;;;;;;10.32;1.80;;;16.70;99.90;;;;;;5034038;28;20056;-73
2023/10/08 13:34:00;;;;;;;9.23;1.98;;;16.60;99.90;;;;;;4986061;28;20044;-73
2023/10/08 13:36:26;;;;;;;10.75;1.88;;;16.60;99.90;;;;;;5017504;28;20037;-72
2023/10/08 13:38:52;;;;;;;8.55;1.85;;;16.50;99.90;;;;;;5017497;28;20037;-73
2023/10/08 13:41:18;;;;;;;8.25;1.52;;;16.60;99.90;;;;;;5034087;28;20077;-73
2023/10/08 13:43:51;;;;;;;9.05;2.03;;;16.60;99.90;;;;;;5017141;28;20509;-75
2023/10/08 13:46:18;;;;;;;8.93;1.90;;;16.60;99.90;;;;;;5017319;28;20041;-74
2023/10/08 13:48:50;;;;;;;8.38;1.80;;;16.60;99.90;;;;;;5017089;28;20393;-75
2023/10/08 13:51:23;;;;;;;8.55;1.85;;;16.60;99.90;;;;;;5016968;28;20508;-72
2023/10/08 13:54:02;;;;;;;11.20;1.85;;;16.50;99.90;;;;;;5017248;28;20045;-74
2023/10/08 13:56:31;;;;;;;8.27;1.88;;;16.40;99.90;;;;;;5033395;28;20513;-73
2023/10/08 13:59:11;;;;;;;9.52;1.80;;;16.40;99.90;;;;;;5033620;28;20091;-74